CMA CGM Moliere — 9HA2072 — position and weather

sailwx.info

Track history (hours):
 
Tides and Currents Weather Stations Pressure Air Temp Water Temp Dewpoint Dewpoint Depression Visibility Wind Speed Wind Dir Waves Ship Positions

CMA CGM Moliere

Last reported at 2018-Jan-07 09:22 UTC. Time now 2018-Jan-21 22:48 UTC.
Position N 19°13' W 096°01'.
Warning: this ship's position is 14 days out of date.

Length 300 m; draft 10.6 m.

Type: Ship (hazmat cat A). MMSI: 249917000.

Date/timePositionNaut miles runAvg speedWind from/ knotsBaromVisibWave heightAir tempDewpointWater temp
2018-Jan-07 09:22N 19°13' W 096°01'4 9.8
2018-Jan-07 08:59N 19°12' W 096°05'3 6.6
2018-Jan-07 08:30N 19°12' W 096°08'0 0.5
2018-Jan-07 07:57N 19°13' W 096°08'0 0.0
2018-Jan-07 07:27N 19°13' W 096°08'0 0.0
2018-Jan-07 06:57N 19°13' W 096°08'0 0.0
2018-Jan-07 06:27N 19°13' W 096°08'0 0.0
2018-Jan-07 05:51N 19°13' W 096°08'0 0.0
2018-Jan-07 05:27N 19°13' W 096°08'0 0.0
2018-Jan-07 04:57N 19°13' W 096°08'0 0.0
2018-Jan-07 04:27N 19°13' W 096°08'0 0.0
2018-Jan-07 03:57N 19°13' W 096°08'0 0.0
2018-Jan-07 03:27N 19°13' W 096°08'0 0.0
2018-Jan-07 02:57N 19°13' W 096°08'0 0.0
2018-Jan-07 02:27N 19°13' W 096°08'0 0.0
2018-Jan-07 01:57N 19°13' W 096°08'0 0.0
2018-Jan-07 01:27N 19°13' W 096°08'0 0.0
2018-Jan-07 00:21N 19°13' W 096°08'0 0.0
2018-Jan-06 23:39N 19°13' W 096°08'0 0.0
2018-Jan-06 23:27N 19°13' W 096°08'0 0.0
2018-Jan-06 22:57N 19°13' W 096°08'0 0.0
2018-Jan-06 22:27N 19°13' W 096°08'0 0.0
2018-Jan-06 21:51N 19°13' W 096°08'0 0.0
2018-Jan-06 21:27N 19°13' W 096°08'0 0.0
2018-Jan-06 20:57N 19°13' W 096°08'0 0.0
2018-Jan-06 20:27N 19°13' W 096°08'0 0.0
2018-Jan-06 19:51N 19°13' W 096°08'0 0.0
2018-Jan-06 19:27N 19°13' W 096°08'0 0.0
2018-Jan-06 18:57N 19°13' W 096°08'0 0.0
2018-Jan-06 18:03N 19°13' W 096°08'0 0.1
2018-Jan-06 17:57N 19°13' W 096°08'0 0.0
2018-Jan-06 17:27N 19°13' W 096°08'0 0.0
2018-Jan-06 16:57N 19°13' W 096°08'0 1.0
2018-Jan-06 16:30N 19°12' W 096°08'4 8.4
2018-Jan-06 16:00N 19°12' W 096°03'  
2018-Jan-01 05:47N 24°13' W 080°32'9518.1
2018-Jan-01 00:30N 25°35' W 079°38'30 8.6
2017-Dec-31 20:59N 25°46' W 080°09'0 0.0
2017-Dec-31 20:26N 25°46' W 080°09'0 0.0
2017-Dec-31 19:59N 25°46' W 080°09'0 0.0
2017-Dec-31 19:29N 25°46' W 080°09'0 0.0
2017-Dec-31 18:59N 25°46' W 080°09'0 0.0
2017-Dec-31 18:29N 25°46' W 080°09'0 0.0
2017-Dec-31 17:56N 25°46' W 080°09'0 0.0
2017-Dec-31 17:29N 25°46' W 080°09'0 0.0
2017-Dec-31 16:59N 25°46' W 080°09'0 0.0
2017-Dec-31 16:26N 25°46' W 080°09'0 0.0
2017-Dec-31 15:59N 25°46' W 080°09'0 0.0
2017-Dec-31 15:29N 25°46' W 080°09'0 0.0
2017-Dec-31 14:59N 25°46' W 080°09'0 0.0
2017-Dec-31 14:29N 25°46' W 080°09'0 0.0
2017-Dec-31 13:59N 25°46' W 080°09'0 0.0
2017-Dec-31 13:29N 25°46' W 080°09'0 0.0
2017-Dec-31 12:59N 25°46' W 080°09'0 0.9
2017-Dec-31 12:30N 25°46' W 080°09'4 8.7
2017-Dec-31 12:01N 25°46' W 080°04'4 8.1
2017-Dec-31 11:30N 25°48' W 080°00'4 8.6
2017-Dec-31 11:00N 25°52' W 080°01'1 1.1
2017-Dec-31 10:30N 25°52' W 080°01'0 0.9
2017-Dec-31 10:00N 25°52' W 080°00'3 6.5
2017-Dec-31 09:30N 25°55' W 079°60'510.2
2017-Dec-31 09:00N 26°00' W 079°60'713.7
2017-Dec-31 08:31N 26°07' W 079°59'713.9
2017-Dec-31 08:00N 26°14' W 079°58'713.7
2017-Dec-31 07:30N 26°21' W 079°57'714.2
2017-Dec-31 07:00N 26°28' W 079°56'713.5
2017-Dec-31 06:30N 26°34' W 079°55'713.3
2017-Dec-31 06:00N 26°41' W 079°54'713.5
2017-Dec-31 05:30N 26°48' W 079°53'714.3
2017-Dec-31 05:00N 26°55' W 079°53'713.9
2017-Dec-31 04:30N 27°02' W 079°52'713.1
2017-Dec-31 04:00N 27°08' W 079°52'28016.3
2017-Dec-30 10:49N 31°46' W 080°32'3 9.9
2017-Dec-30 10:30N 31°49' W 080°35'510.0
2017-Dec-30 10:00N 31°53' W 080°38'510.0
2017-Dec-30 09:30N 31°57' W 080°42'611.2
2017-Dec-30 09:00N 31°60' W 080°47'611.0
2017-Dec-30 08:30N 32°02' W 080°53'5 9.1
2017-Dec-30 08:00N 32°04' W 080°58'4 7.6
2017-Dec-30 07:30N 32°05' W 081°02'3 6.4
2017-Dec-30 07:00N 32°05' W 081°06'3 5.4
2017-Dec-30 06:30N 32°07' W 081°08'0 0.7
2017-Dec-30 05:55N 32°08' W 081°08'0 0.0
2017-Dec-30 05:25N 32°08' W 081°08'0 0.0
2017-Dec-30 04:50N 32°08' W 081°08'0 0.0
2017-Dec-30 04:26N 32°08' W 081°08'0 0.0
2017-Dec-30 03:55N 32°08' W 081°08'0 0.0
2017-Dec-30 03:25N 32°08' W 081°08'0 0.0
2017-Dec-30 02:56N 32°08' W 081°08'0 0.0
2017-Dec-30 02:25N 32°08' W 081°08'0 0.0
2017-Dec-30 01:56N 32°08' W 081°08'0 0.0
2017-Dec-30 01:20N 32°08' W 081°08'0 0.0
2017-Dec-30 00:55N 32°08' W 081°08'0 0.0
2017-Dec-30 00:26N 32°08' W 081°08'0 0.0
2017-Dec-29 23:56N 32°08' W 081°08'0 0.0
2017-Dec-29 23:26N 32°08' W 081°08'0 0.0
2017-Dec-29 22:55N 32°08' W 081°08'0 1.1
2017-Dec-29 22:30N 32°08' W 081°08'2 4.4
2017-Dec-29 22:00N 32°06' W 081°07'3 6.8
2017-Dec-29 21:30N 32°05' W 081°03'510.4
2017-Dec-29 21:01N 32°04' W 080°57'510.3
2017-Dec-29 20:30N 32°02' W 080°52'5 9.0
2017-Dec-29 20:00N 31°60' W 080°47'5 9.5
2017-Dec-29 19:31N 31°57' W 080°42'4 8.2
2017-Dec-29 19:00N 31°56' W 080°38'4 8.9
2017-Dec-29 18:30N 31°56' W 080°32'3 4.5
2017-Dec-29 17:57N 31°58' W 080°30'0 0.1
2017-Dec-29 17:09N 31°58' W 080°30'0 0.1
2017-Dec-29 16:57N 31°58' W 080°30'0 0.1
2017-Dec-29 16:27N 31°58' W 080°30'0 0.1
2017-Dec-29 15:57N 31°58' W 080°30'0 0.0
2017-Dec-29 15:21N 31°58' W 080°30'0 0.0
2017-Dec-29 14:57N 31°58' W 080°30'0 0.0
2017-Dec-29 14:27N 31°58' W 080°30'0 0.1
2017-Dec-29 13:57N 31°58' W 080°30'0 0.0
2017-Dec-29 13:27N 31°58' W 080°30'0 0.0
2017-Dec-29 12:57N 31°58' W 080°30'0 0.0
2017-Dec-29 12:09N 31°58' W 080°30'0 0.0
2017-Dec-29 11:57N 31°58' W 080°30'0 0.0
2017-Dec-29 11:31N 31°58' W 080°30'0 0.0
2017-Dec-29 11:01N 31°58' W 080°30'0 0.1
2017-Dec-29 10:30N 31°58' W 080°30'2 4.3
2017-Dec-29 10:01N 31°58' W 080°27'  
Track history (hours):
 
Tides and Currents Weather Stations Pressure Air Temp Water Temp Dewpoint Dewpoint Depression Visibility Wind Speed Wind Dir Waves Ship Positions

CMA CGM Moliere

Last reported at 2018-Jan-07 09:22 UTC. Time now 2018-Jan-21 22:48 UTC.
Position N 19°13' W 096°01'.
Warning: this ship's position is 14 days out of date.

Length 300 m; draft 10.6 m.

Type: Ship (hazmat cat A). MMSI: 249917000.

Date/timePositionNaut miles runAvg speedWind from/ knotsBaromVisibWave heightAir tempDewpointWater temp
2018-Jan-07 09:22N 19°13' W 096°01'4 9.8
2018-Jan-07 08:59N 19°12' W 096°05'3 6.6
2018-Jan-07 08:30N 19°12' W 096°08'0 0.5
2018-Jan-07 07:57N 19°13' W 096°08'0 0.0
2018-Jan-07 07:27N 19°13' W 096°08'0 0.0
2018-Jan-07 06:57N 19°13' W 096°08'0 0.0
2018-Jan-07 06:27N 19°13' W 096°08'0 0.0
2018-Jan-07 05:51N 19°13' W 096°08'0 0.0
2018-Jan-07 05:27N 19°13' W 096°08'0 0.0
2018-Jan-07 04:57N 19°13' W 096°08'0 0.0
2018-Jan-07 04:27N 19°13' W 096°08'0 0.0
2018-Jan-07 03:57N 19°13' W 096°08'0 0.0
2018-Jan-07 03:27N 19°13' W 096°08'0 0.0
2018-Jan-07 02:57N 19°13' W 096°08'0 0.0
2018-Jan-07 02:27N 19°13' W 096°08'0 0.0
2018-Jan-07 01:57N 19°13' W 096°08'0 0.0
2018-Jan-07 01:27N 19°13' W 096°08'0 0.0
2018-Jan-07 00:21N 19°13' W 096°08'0 0.0
2018-Jan-06 23:39N 19°13' W 096°08'0 0.0
2018-Jan-06 23:27N 19°13' W 096°08'0 0.0
2018-Jan-06 22:57N 19°13' W 096°08'0 0.0
2018-Jan-06 22:27N 19°13' W 096°08'0 0.0
2018-Jan-06 21:51N 19°13' W 096°08'0 0.0
2018-Jan-06 21:27N 19°13' W 096°08'0 0.0
2018-Jan-06 20:57N 19°13' W 096°08'0 0.0
2018-Jan-06 20:27N 19°13' W 096°08'0 0.0
2018-Jan-06 19:51N 19°13' W 096°08'0 0.0
2018-Jan-06 19:27N 19°13' W 096°08'0 0.0
2018-Jan-06 18:57N 19°13' W 096°08'0 0.0
2018-Jan-06 18:03N 19°13' W 096°08'0 0.1
2018-Jan-06 17:57N 19°13' W 096°08'0 0.0
2018-Jan-06 17:27N 19°13' W 096°08'0 0.0
2018-Jan-06 16:57N 19°13' W 096°08'0 1.0
2018-Jan-06 16:30N 19°12' W 096°08'4 8.4
2018-Jan-06 16:00N 19°12' W 096°03'  
2018-Jan-01 05:47N 24°13' W 080°32'9518.1
2018-Jan-01 00:30N 25°35' W 079°38'30 8.6
2017-Dec-31 20:59N 25°46' W 080°09'0 0.0
2017-Dec-31 20:26N 25°46' W 080°09'0 0.0
2017-Dec-31 19:59N 25°46' W 080°09'0 0.0
2017-Dec-31 19:29N 25°46' W 080°09'0 0.0
2017-Dec-31 18:59N 25°46' W 080°09'0 0.0
2017-Dec-31 18:29N 25°46' W 080°09'0 0.0
2017-Dec-31 17:56N 25°46' W 080°09'0 0.0
2017-Dec-31 17:29N 25°46' W 080°09'0 0.0
2017-Dec-31 16:59N 25°46' W 080°09'0 0.0
2017-Dec-31 16:26N 25°46' W 080°09'0 0.0
2017-Dec-31 15:59N 25°46' W 080°09'0 0.0
2017-Dec-31 15:29N 25°46' W 080°09'0 0.0
2017-Dec-31 14:59N 25°46' W 080°09'0 0.0
2017-Dec-31 14:29N 25°46' W 080°09'0 0.0
2017-Dec-31 13:59N 25°46' W 080°09'0 0.0
2017-Dec-31 13:29N 25°46' W 080°09'0 0.0
2017-Dec-31 12:59N 25°46' W 080°09'0 0.9
2017-Dec-31 12:30N 25°46' W 080°09'4 8.7
2017-Dec-31 12:01N 25°46' W 080°04'4 8.1
2017-Dec-31 11:30N 25°48' W 080°00'4 8.6
2017-Dec-31 11:00N 25°52' W 080°01'1 1.1
2017-Dec-31 10:30N 25°52' W 080°01'0 0.9
2017-Dec-31 10:00N 25°52' W 080°00'3 6.5
2017-Dec-31 09:30N 25°55' W 079°60'510.2
2017-Dec-31 09:00N 26°00' W 079°60'713.7
2017-Dec-31 08:31N 26°07' W 079°59'713.9
2017-Dec-31 08:00N 26°14' W 079°58'713.7
2017-Dec-31 07:30N 26°21' W 079°57'714.2
2017-Dec-31 07:00N 26°28' W 079°56'713.5
2017-Dec-31 06:30N 26°34' W 079°55'713.3
2017-Dec-31 06:00N 26°41' W 079°54'713.5
2017-Dec-31 05:30N 26°48' W 079°53'714.3
2017-Dec-31 05:00N 26°55' W 079°53'713.9
2017-Dec-31 04:30N 27°02' W 079°52'713.1
2017-Dec-31 04:00N 27°08' W 079°52'28016.3
2017-Dec-30 10:49N 31°46' W 080°32'3 9.9
2017-Dec-30 10:30N 31°49' W 080°35'510.0
2017-Dec-30 10:00N 31°53' W 080°38'510.0
2017-Dec-30 09:30N 31°57' W 080°42'611.2
2017-Dec-30 09:00N 31°60' W 080°47'611.0
2017-Dec-30 08:30N 32°02' W 080°53'5 9.1
2017-Dec-30 08:00N 32°04' W 080°58'4 7.6
2017-Dec-30 07:30N 32°05' W 081°02'3 6.4
2017-Dec-30 07:00N 32°05' W 081°06'3 5.4
2017-Dec-30 06:30N 32°07' W 081°08'0 0.7
2017-Dec-30 05:55N 32°08' W 081°08'0 0.0
2017-Dec-30 05:25N 32°08' W 081°08'0 0.0
2017-Dec-30 04:50N 32°08' W 081°08'0 0.0
2017-Dec-30 04:26N 32°08' W 081°08'0 0.0
2017-Dec-30 03:55N 32°08' W 081°08'0 0.0
2017-Dec-30 03:25N 32°08' W 081°08'0 0.0
2017-Dec-30 02:56N 32°08' W 081°08'0 0.0
2017-Dec-30 02:25N 32°08' W 081°08'0 0.0
2017-Dec-30 01:56N 32°08' W 081°08'0 0.0
2017-Dec-30 01:20N 32°08' W 081°08'0 0.0
2017-Dec-30 00:55N 32°08' W 081°08'0 0.0
2017-Dec-30 00:26N 32°08' W 081°08'0 0.0
2017-Dec-29 23:56N 32°08' W 081°08'0 0.0
2017-Dec-29 23:26N 32°08' W 081°08'0 0.0
2017-Dec-29 22:55N 32°08' W 081°08'0 1.1
2017-Dec-29 22:30N 32°08' W 081°08'2 4.4
2017-Dec-29 22:00N 32°06' W 081°07'3 6.8
2017-Dec-29 21:30N 32°05' W 081°03'510.4
2017-Dec-29 21:01N 32°04' W 080°57'510.3
2017-Dec-29 20:30N 32°02' W 080°52'5 9.0
2017-Dec-29 20:00N 31°60' W 080°47'5 9.5
2017-Dec-29 19:31N 31°57' W 080°42'4 8.2
2017-Dec-29 19:00N 31°56' W 080°38'4 8.9
2017-Dec-29 18:30N 31°56' W 080°32'3 4.5
2017-Dec-29 17:57N 31°58' W 080°30'0 0.1
2017-Dec-29 17:09N 31°58' W 080°30'0 0.1
2017-Dec-29 16:57N 31°58' W 080°30'0 0.1
2017-Dec-29 16:27N 31°58' W 080°30'0 0.1
2017-Dec-29 15:57N 31°58' W 080°30'0 0.0
2017-Dec-29 15:21N 31°58' W 080°30'0 0.0
2017-Dec-29 14:57N 31°58' W 080°30'0 0.0
2017-Dec-29 14:27N 31°58' W 080°30'0 0.1
2017-Dec-29 13:57N 31°58' W 080°30'0 0.0
2017-Dec-29 13:27N 31°58' W 080°30'0 0.0
2017-Dec-29 12:57N 31°58' W 080°30'0 0.0
2017-Dec-29 12:09N 31°58' W 080°30'0 0.0
2017-Dec-29 11:57N 31°58' W 080°30'0 0.0
2017-Dec-29 11:31N 31°58' W 080°30'0 0.0
2017-Dec-29 11:01N 31°58' W 080°30'0 0.1
2017-Dec-29 10:30N 31°58' W 080°30'2 4.3
2017-Dec-29 10:01N 31°58' W 080°27'  

Dump ship's entire track history